createdAt,value
2023-01-29T00:01:57.643Z,102394.94
2023-01-29T00:04:24.521Z,102404.97
2023-01-29T00:06:53.997Z,102402.91
2023-01-29T00:09:21.121Z,102398.34
2023-01-29T00:11:47.944Z,102395.16
2023-01-29T00:14:14.593Z,102402.66
2023-01-29T00:16:41.279Z,102397.91
2023-01-29T00:19:07.986Z,102397.25
2023-01-29T00:21:34.970Z,102393.53
2023-01-29T00:24:01.676Z,102397.69
2023-01-29T00:26:28.361Z,102386.69
2023-01-29T00:28:57.111Z,102385.44
2023-01-29T00:31:24.710Z,102381.16
2023-01-29T00:33:51.375Z,102385.97
2023-01-29T00:36:19.256Z,102382.56
2023-01-29T00:38:54.936Z,102384.25
2023-01-29T00:41:41.595Z,102376.88
2023-01-29T00:44:29.149Z,102381.75
2023-01-29T00:46:55.721Z,102381.25
2023-01-29T00:49:22.470Z,102384.47
2023-01-29T00:52:08.728Z,102386.88
2023-01-29T00:54:35.708Z,102372.19
2023-01-29T00:57:03.329Z,102380.25
2023-01-29T00:59:30.547Z,102387.78
2023-01-29T01:02:15.850Z,102384.66
2023-01-29T01:04:42.521Z,102389.38
2023-01-29T01:07:09.166Z,102385.56
2023-01-29T01:09:55.519Z,102386.69
2023-01-29T01:12:22.176Z,102385.00
2023-01-29T01:14:48.999Z,102387.38
2023-01-29T01:17:15.796Z,102390.25
2023-01-29T01:19:42.945Z,102388.13
2023-01-29T01:22:09.648Z,102389.09
2023-01-29T01:24:36.392Z,102375.53
2023-01-29T01:27:03.010Z,102368.50
2023-01-29T01:29:29.741Z,102357.06
2023-01-29T01:31:57.588Z,102354.25
2023-01-29T01:34:24.308Z,102345.13
2023-01-29T01:36:50.860Z,102347.72
2023-01-29T01:39:17.475Z,102350.63
2023-01-29T01:41:44.056Z,102348.31
2023-01-29T01:44:48.583Z,102342.63
2023-01-29T01:47:16.121Z,102343.94
2023-01-29T01:49:43.630Z,102343.84
2023-01-29T01:52:10.576Z,102344.31
2023-01-29T01:54:37.174Z,102345.88
2023-01-29T01:57:15.811Z,102348.66
2023-01-29T01:59:52.605Z,102351.03
2023-01-29T02:02:38.444Z,102365.06
2023-01-29T02:05:24.755Z,102361.25
2023-01-29T02:08:10.285Z,102358.75
2023-01-29T02:10:47.539Z,102364.66
2023-01-29T02:13:18.603Z,102360.44
2023-01-29T02:15:48.813Z,102367.22
2023-01-29T02:18:17.734Z,102360.25
2023-01-29T02:21:04.992Z,102380.28
2023-01-29T02:23:37.591Z,102373.84
2023-01-29T02:26:37.687Z,102381.66
2023-01-29T02:29:26.819Z,102381.25
2023-01-29T02:31:56.054Z,102379.06
2023-01-29T02:34:28.747Z,102383.09
2023-01-29T02:37:01.521Z,102386.84
2023-01-29T02:39:37.491Z,102381.28
2023-01-29T02:42:16.689Z,102381.25
2023-01-29T02:44:48.970Z,102373.84
2023-01-29T02:47:22.896Z,102371.53
2023-01-29T02:50:00.344Z,102376.69
2023-01-29T02:52:40.127Z,102375.78
2023-01-29T02:55:13.738Z,102368.66
2023-01-29T02:57:43.550Z,102364.16
2023-01-29T03:00:28.064Z,102370.28
2023-01-29T03:03:22.393Z,102354.94
2023-01-29T03:06:07.796Z,102356.19
2023-01-29T03:08:43.151Z,102358.13
2023-01-29T03:11:15.138Z,102364.59
2023-01-29T03:13:45.933Z,102368.34
2023-01-29T03:16:20.536Z,102373.41
2023-01-29T03:18:55.242Z,102378.22
2023-01-29T03:21:48.533Z,102364.72
2023-01-29T03:24:37.815Z,102362.59
2023-01-29T03:27:27.652Z,102370.31
2023-01-29T03:30:14.455Z,102381.03
2023-01-29T03:32:53.211Z,102373.81
2023-01-29T03:35:35.336Z,102362.94
2023-01-29T03:38:07.495Z,102372.03
2023-01-29T03:41:20.189Z,102374.66
2023-01-29T03:43:50.072Z,102376.56
2023-01-29T03:46:29.699Z,102364.75
2023-01-29T03:49:22.095Z,102372.66
2023-01-29T03:52:01.006Z,102375.03
2023-01-29T03:54:33.396Z,102370.56
2023-01-29T03:57:15.403Z,102368.78
2023-01-29T03:59:55.047Z,102369.53
2023-01-29T04:02:53.241Z,102370.63
2023-01-29T04:05:23.166Z,102361.41
2023-01-29T04:08:10.155Z,102358.91
2023-01-29T04:10:38.282Z,102359.66
2023-01-29T04:13:09.659Z,102351.16
2023-01-29T04:15:45.980Z,102349.53
2023-01-29T04:18:12.618Z,102339.19
2023-01-29T04:20:58.341Z,102338.66
2023-01-29T04:23:26.944Z,102334.56
2023-01-29T04:26:16.500Z,102332.38
2023-01-29T04:29:20.275Z,102329.00
2023-01-29T04:32:01.079Z,102323.19
2023-01-29T04:34:29.877Z,102315.72
2023-01-29T04:37:07.620Z,102315.38
2023-01-29T04:39:45.112Z,102328.81
2023-01-29T04:42:49.912Z,102324.25
2023-01-29T04:45:53.903Z,102324.88
2023-01-29T04:48:25.653Z,102316.66
2023-01-29T04:50:55.183Z,102311.50
2023-01-29T04:53:26.804Z,102311.91
2023-01-29T04:55:59.298Z,102315.16
2023-01-29T04:58:34.128Z,102310.78
2023-01-29T05:01:02.488Z,102311.53
2023-01-29T05:03:29.939Z,102308.19
2023-01-29T05:05:57.966Z,102306.66
2023-01-29T05:08:25.759Z,102298.50
2023-01-29T05:10:54.035Z,102295.84
2023-01-29T05:13:22.176Z,102298.78
2023-01-29T05:15:52.893Z,102288.34
2023-01-29T05:18:19.621Z,102296.28
2023-01-29T05:20:47.087Z,102287.75
2023-01-29T05:23:21.357Z,102292.31
2023-01-29T05:25:48.981Z,102284.06
2023-01-29T05:28:18.481Z,102280.53
2023-01-29T05:30:47.373Z,102275.22
2023-01-29T05:33:16.357Z,102261.25
2023-01-29T05:35:42.983Z,102267.78
2023-01-29T05:38:10.012Z,102276.59
2023-01-29T05:40:37.297Z,102264.97
2023-01-29T05:43:05.785Z,102268.53
2023-01-29T05:45:33.009Z,102264.63
2023-01-29T05:48:00.153Z,102274.53
2023-01-29T05:50:27.762Z,102267.78
2023-01-29T05:53:01.922Z,102267.72
2023-01-29T05:55:29.639Z,102280.72
2023-01-29T05:57:56.305Z,102282.50
2023-01-29T06:00:23.159Z,102282.50
2023-01-29T06:02:49.953Z,102298.38
2023-01-29T06:05:16.598Z,102300.22
2023-01-29T06:07:45.347Z,102301.63
2023-01-29T06:10:17.322Z,102300.41
2023-01-29T06:12:44.295Z,102302.75
2023-01-29T06:15:12.344Z,102308.84
2023-01-29T06:17:38.935Z,102318.34
2023-01-29T06:20:06.172Z,102320.66
2023-01-29T06:22:33.104Z,102322.59
2023-01-29T06:24:59.695Z,102327.75
2023-01-29T06:27:26.327Z,102319.41
2023-01-29T06:29:52.891Z,102329.78
2023-01-29T06:32:19.549Z,102336.16
2023-01-29T06:34:48.652Z,102334.41
2023-01-29T06:37:16.228Z,102339.78
2023-01-29T06:39:42.826Z,102341.38
2023-01-29T06:42:10.037Z,102336.28
2023-01-29T06:44:36.944Z,102327.06
2023-01-29T06:47:03.613Z,102321.50
2023-01-29T06:49:30.229Z,102312.88
2023-01-29T06:51:57.189Z,102306.66
2023-01-29T06:54:23.828Z,102307.16
2023-01-29T06:56:50.414Z,102306.88
2023-01-29T06:59:17.002Z,102301.09
2023-01-29T07:01:44.416Z,102305.06
2023-01-29T07:04:11.596Z,102304.47
2023-01-29T07:06:38.300Z,102301.69
2023-01-29T07:09:05.055Z,102293.84
2023-01-29T07:11:32.008Z,102298.78
2023-01-29T07:13:58.630Z,102288.19
2023-01-29T07:16:26.307Z,102290.06
2023-01-29T07:18:53.252Z,102291.78
2023-01-29T07:21:19.954Z,102280.50
2023-01-29T07:23:46.554Z,102284.66
2023-01-29T07:26:13.213Z,102285.16
2023-01-29T07:28:40.641Z,102283.25
2023-01-29T07:31:08.186Z,102284.28
2023-01-29T07:33:34.975Z,102277.13
2023-01-29T07:36:01.758Z,102283.25
2023-01-29T07:38:28.354Z,102289.63
2023-01-29T07:40:54.986Z,102291.44
2023-01-29T07:43:21.577Z,102305.38
2023-01-29T07:45:48.196Z,102317.28
2023-01-29T07:48:14.800Z,102310.91
2023-01-29T07:50:41.787Z,102302.72
2023-01-29T07:53:13.019Z,102292.09
2023-01-29T07:55:39.602Z,102303.69
2023-01-29T07:58:06.484Z,102301.75
2023-01-29T08:00:33.104Z,102289.00
2023-01-29T08:03:07.905Z,102293.66
2023-01-29T08:05:34.698Z,102293.13
2023-01-29T08:08:06.954Z,102292.53
2023-01-29T08:10:38.456Z,102288.69
2023-01-29T08:13:06.359Z,102289.09
2023-01-29T08:15:33.540Z,102293.59
2023-01-29T08:18:02.223Z,102299.16
2023-01-29T08:20:29.173Z,102295.34
2023-01-29T08:23:01.167Z,102291.72
2023-01-29T08:25:28.376Z,102299.09
2023-01-29T08:27:57.083Z,102291.69
2023-01-29T08:30:24.849Z,102286.47
2023-01-29T08:32:51.490Z,102280.97
2023-01-29T08:35:18.346Z,102261.94
2023-01-29T08:37:45.110Z,102263.84
2023-01-29T08:40:13.370Z,102272.34
2023-01-29T08:42:41.544Z,102273.22
2023-01-29T08:45:08.884Z,102271.44
2023-01-29T08:47:35.562Z,102274.66
2023-01-29T08:50:02.537Z,102270.63
2023-01-29T08:52:29.142Z,102270.78
2023-01-29T08:54:55.693Z,102270.88
2023-01-29T08:57:22.297Z,102265.56
2023-01-29T08:59:48.875Z,102261.72
2023-01-29T09:02:15.576Z,102260.25
2023-01-29T09:04:42.232Z,102252.59
2023-01-29T09:07:09.371Z,102250.97
2023-01-29T09:09:36.130Z,102248.47
2023-01-29T09:12:03.831Z,102250.75
2023-01-29T09:14:30.862Z,102248.63
2023-01-29T09:16:57.532Z,102245.97
2023-01-29T09:19:24.204Z,102230.16
2023-01-29T09:21:50.758Z,102229.66
2023-01-29T09:24:17.853Z,102233.75
2023-01-29T09:26:44.461Z,102227.28
2023-01-29T09:29:11.648Z,102235.50
2023-01-29T09:31:38.296Z,102242.88
2023-01-29T09:34:04.927Z,102244.16
2023-01-29T09:36:31.552Z,102228.19
2023-01-29T09:38:58.150Z,102217.44
2023-01-29T09:41:32.563Z,102217.09
2023-01-29T09:44:02.732Z,102227.19
2023-01-29T09:46:40.206Z,102216.19
2023-01-29T09:49:15.232Z,102213.47
2023-01-29T09:51:44.657Z,102214.28
2023-01-29T09:54:36.189Z,102215.06
2023-01-29T09:57:02.770Z,102209.38
2023-01-29T09:59:31.377Z,102216.88
2023-01-29T10:02:22.947Z,102219.63
2023-01-29T10:05:11.116Z,102225.53
2023-01-29T10:07:57.788Z,102228.13
2023-01-29T10:10:33.392Z,102226.41
2023-01-29T10:13:12.098Z,102229.16
2023-01-29T10:15:50.935Z,102220.88
2023-01-29T10:18:48.615Z,102222.09
2023-01-29T10:21:51.108Z,102223.16
2023-01-29T10:24:38.384Z,102225.47
2023-01-29T10:27:15.152Z,102214.31
2023-01-29T10:29:43.534Z,102220.59
2023-01-29T10:32:16.790Z,102209.06
2023-01-29T10:34:52.543Z,102206.06
2023-01-29T10:37:24.320Z,102200.03
2023-01-29T10:39:51.112Z,102200.38
2023-01-29T10:42:50.297Z,102201.22
2023-01-29T10:45:35.467Z,102210.00
2023-01-29T10:48:45.213Z,102192.19
2023-01-29T10:51:42.794Z,102195.31
2023-01-29T10:54:41.318Z,102189.91
2023-01-29T10:57:46.399Z,102183.50
2023-01-29T11:00:27.374Z,102176.44
2023-01-29T11:02:54.085Z,102181.44
2023-01-29T11:05:32.129Z,102167.22
2023-01-29T11:08:07.274Z,102165.00
2023-01-29T11:10:40.328Z,102170.03
2023-01-29T11:13:12.600Z,102157.81
2023-01-29T11:15:39.700Z,102148.91
2023-01-29T11:18:14.160Z,102137.44
2023-01-29T11:20:42.758Z,102153.75
2023-01-29T11:23:30.934Z,102148.13
2023-01-29T11:25:59.086Z,102144.66
2023-01-29T11:28:42.721Z,102137.88
2023-01-29T11:31:29.461Z,102133.44
2023-01-29T11:34:07.784Z,102131.53
2023-01-29T11:36:39.474Z,102124.56
2023-01-29T11:39:15.771Z,102120.06
2023-01-29T11:41:44.738Z,102117.88
2023-01-29T11:44:33.410Z,102105.00
2023-01-29T11:47:21.708Z,102103.88
2023-01-29T11:49:54.275Z,102105.56
2023-01-29T11:52:24.197Z,102108.16
2023-01-29T11:55:04.157Z,102095.44
2023-01-29T11:57:34.649Z,102078.66
2023-01-29T12:00:07.736Z,102076.78
2023-01-29T12:02:47.952Z,102069.38
2023-01-29T12:05:20.194Z,102063.69
2023-01-29T12:07:50.559Z,102063.31
2023-01-29T12:10:36.572Z,102054.88
2023-01-29T12:13:09.300Z,102047.88
2023-01-29T12:15:40.325Z,102039.78
2023-01-29T12:18:32.193Z,102035.25
2023-01-29T12:21:04.966Z,102025.19
2023-01-29T12:24:29.299Z,102022.09
2023-01-29T12:27:02.801Z,102014.22
2023-01-29T12:29:36.061Z,101996.91
2023-01-29T12:32:23.700Z,101989.31
2023-01-29T12:34:56.581Z,101988.66
2023-01-29T12:37:28.946Z,101981.09
2023-01-29T12:39:55.763Z,101964.97
2023-01-29T12:42:25.628Z,101963.88
2023-01-29T12:44:56.065Z,101969.22
2023-01-29T12:47:25.956Z,101958.63
2023-01-29T12:49:56.060Z,101962.47
2023-01-29T12:52:30.583Z,101956.81
2023-01-29T12:55:03.377Z,101962.09
2023-01-29T12:57:36.202Z,101945.31
2023-01-29T13:00:08.204Z,101946.13
2023-01-29T13:02:52.530Z,101943.22
2023-01-29T13:05:26.327Z,101945.16
2023-01-29T13:08:14.375Z,101928.31
2023-01-29T13:10:43.788Z,101926.91
2023-01-29T13:13:33.326Z,101931.00
2023-01-29T13:16:01.155Z,101926.94
2023-01-29T13:18:42.119Z,101928.53
2023-01-29T13:21:15.493Z,101924.28
2023-01-29T13:23:46.978Z,101925.09
2023-01-29T13:26:17.968Z,101927.28
2023-01-29T13:28:45.214Z,101925.13
2023-01-29T13:31:24.279Z,101931.19
2023-01-29T13:34:14.173Z,101922.41
2023-01-29T13:36:46.707Z,101926.13
2023-01-29T13:39:33.902Z,101920.72
2023-01-29T13:42:01.474Z,101920.41
2023-01-29T13:44:39.020Z,101914.78
2023-01-29T13:47:07.999Z,101921.00
2023-01-29T13:49:37.580Z,101926.88
2023-01-29T13:52:23.982Z,101932.88
2023-01-29T13:55:13.850Z,101925.41
2023-01-29T13:57:46.915Z,101932.28
2023-01-29T14:00:22.615Z,101925.84
2023-01-29T14:02:54.956Z,101924.94
2023-01-29T14:05:30.971Z,101916.81
2023-01-29T14:08:08.643Z,101909.38
2023-01-29T14:10:36.995Z,101904.38
2023-01-29T14:13:03.508Z,101903.75
2023-01-29T14:15:40.165Z,101898.63
2023-01-29T14:18:22.358Z,101889.53
2023-01-29T14:20:48.951Z,101890.78
2023-01-29T14:23:41.239Z,101889.13
2023-01-29T14:26:28.873Z,101890.50
2023-01-29T14:29:00.751Z,101891.34
2023-01-29T14:31:36.923Z,101881.53
2023-01-29T14:34:06.524Z,101890.22
2023-01-29T14:36:41.175Z,101888.59
2023-01-29T14:39:20.433Z,101887.22
2023-01-29T14:41:47.614Z,101881.00
2023-01-29T14:44:45.492Z,101887.75
2023-01-29T14:47:25.493Z,101881.84
2023-01-29T14:49:59.740Z,101870.97
2023-01-29T14:52:40.424Z,101870.47
2023-01-29T14:55:13.447Z,101870.47
2023-01-29T14:57:40.021Z,101865.34
2023-01-29T15:00:15.471Z,101873.72
2023-01-29T15:02:44.300Z,101870.47
2023-01-29T15:05:15.076Z,101868.44
2023-01-29T15:07:49.163Z,101869.09
2023-01-29T15:10:31.492Z,101868.38
2023-01-29T15:13:46.289Z,101871.72
2023-01-29T15:16:35.629Z,101869.75
2023-01-29T15:19:33.496Z,101857.50
2023-01-29T15:22:16.857Z,101853.97
2023-01-29T15:24:44.805Z,101858.13
2023-01-29T15:27:15.769Z,101857.91
2023-01-29T15:29:44.830Z,101852.69
2023-01-29T15:32:17.269Z,101848.13
2023-01-29T15:34:44.259Z,101843.31
2023-01-29T15:37:33.993Z,101849.06
2023-01-29T15:40:01.660Z,101840.66
2023-01-29T15:42:29.650Z,101843.00
2023-01-29T15:44:56.356Z,101837.75
2023-01-29T15:47:30.352Z,101835.47
2023-01-29T15:49:57.409Z,101835.31
2023-01-29T15:52:28.089Z,101831.69
2023-01-29T15:54:56.639Z,101835.63
2023-01-29T15:57:32.997Z,101838.69
2023-01-29T16:00:00.205Z,101827.66
2023-01-29T16:02:39.260Z,101828.22
2023-01-29T16:05:12.911Z,101819.59
2023-01-29T16:07:40.632Z,101813.25
2023-01-29T16:10:11.616Z,101815.28
2023-01-29T16:12:39.356Z,101809.00
2023-01-29T16:15:06.751Z,101811.59
2023-01-29T16:17:36.814Z,101807.41
2023-01-29T16:20:07.893Z,101793.94
2023-01-29T16:22:36.261Z,101793.38
2023-01-29T16:25:05.711Z,101802.84
2023-01-29T16:27:32.939Z,101797.25
2023-01-29T16:30:02.057Z,101797.75
2023-01-29T16:32:30.004Z,101791.13
2023-01-29T16:34:58.874Z,101780.13
2023-01-29T16:37:30.843Z,101777.66
2023-01-29T16:39:57.972Z,101784.59
2023-01-29T16:42:29.520Z,101778.03
2023-01-29T16:45:07.371Z,101787.66
2023-01-29T16:47:33.933Z,101778.13
2023-01-29T16:50:22.360Z,101789.13
2023-01-29T16:53:00.265Z,101770.78
2023-01-29T16:55:33.042Z,101775.34
2023-01-29T16:58:03.740Z,101773.78
2023-01-29T17:00:31.295Z,101765.81
2023-01-29T17:03:04.976Z,101768.63
2023-01-29T17:05:34.068Z,101768.63
2023-01-29T17:08:00.947Z,101761.47
2023-01-29T17:10:28.843Z,101765.28
2023-01-29T17:13:06.332Z,101771.97
2023-01-29T17:15:43.043Z,101761.38
2023-01-29T17:18:19.196Z,101760.41
2023-01-29T17:20:46.132Z,101754.06
2023-01-29T17:23:12.926Z,101758.66
2023-01-29T17:25:40.399Z,101748.56
2023-01-29T17:28:07.899Z,101733.75
2023-01-29T17:30:37.146Z,101742.94
2023-01-29T17:33:18.115Z,101739.50
2023-01-29T17:35:45.612Z,101735.66
2023-01-29T17:38:24.286Z,101730.88
2023-01-29T17:40:58.902Z,101735.84
2023-01-29T17:43:25.510Z,101737.19
2023-01-29T17:45:52.227Z,101736.25
2023-01-29T17:48:27.054Z,101747.09
2023-01-29T17:50:56.345Z,101734.13
2023-01-29T17:53:24.869Z,101742.56
2023-01-29T17:55:53.290Z,101732.31
2023-01-29T17:58:27.414Z,101731.94
2023-01-29T18:00:54.969Z,101723.53
2023-01-29T18:03:22.909Z,101716.28
2023-01-29T18:05:50.331Z,101714.38
2023-01-29T18:08:28.781Z,101706.72
2023-01-29T18:10:55.517Z,101704.72
2023-01-29T18:13:22.184Z,101698.69
2023-01-29T18:15:49.689Z,101706.00
2023-01-29T18:18:20.054Z,101725.16
2023-01-29T18:20:46.866Z,101713.16
2023-01-29T18:23:13.585Z,101706.81
2023-01-29T18:25:40.333Z,101700.56
2023-01-29T18:28:07.592Z,101700.41
2023-01-29T18:30:34.276Z,101708.16
2023-01-29T18:33:01.240Z,101702.47
2023-01-29T18:35:28.285Z,101703.47
2023-01-29T18:37:55.056Z,101700.13
2023-01-29T18:40:21.766Z,101688.03
2023-01-29T18:42:48.773Z,101681.34
2023-01-29T18:45:16.624Z,101674.19
2023-01-29T18:47:46.188Z,101674.97
2023-01-29T18:50:13.265Z,101664.63
2023-01-29T18:52:40.844Z,101667.06
2023-01-29T18:55:09.730Z,101666.16
2023-01-29T18:58:29.217Z,101657.22
2023-01-29T19:00:24.925Z,101661.28
2023-01-29T19:02:51.506Z,101664.72
2023-01-29T19:05:21.419Z,101662.72
2023-01-29T19:07:48.216Z,101655.84
2023-01-29T19:10:17.006Z,101648.00
2023-01-29T19:12:43.985Z,101656.41
2023-01-29T19:15:11.681Z,101653.69
2023-01-29T19:17:38.866Z,101648.91
2023-01-29T19:20:05.810Z,101643.94
2023-01-29T19:22:32.457Z,101636.09
2023-01-29T19:24:59.211Z,101639.22
2023-01-29T19:27:30.371Z,101623.16
2023-01-29T19:30:00.094Z,101621.56
2023-01-29T19:32:28.784Z,101618.13
2023-01-29T19:34:55.842Z,101608.00
2023-01-29T19:37:22.685Z,101604.28
2023-01-29T19:39:49.307Z,101587.88
2023-01-29T19:42:16.314Z,101584.28
2023-01-29T19:44:44.689Z,101578.47
2023-01-29T19:47:11.318Z,101570.91
2023-01-29T19:49:38.029Z,101566.84
2023-01-29T19:52:05.979Z,101566.06
2023-01-29T19:54:32.845Z,101574.13
2023-01-29T19:56:59.601Z,101565.44
2023-01-29T19:59:26.213Z,101566.16
2023-01-29T20:01:52.949Z,101567.00
2023-01-29T20:04:19.779Z,101562.50
2023-01-29T20:06:46.856Z,101559.97
2023-01-29T20:09:13.439Z,101544.81
2023-01-29T20:11:40.116Z,101528.44
2023-01-29T20:14:06.744Z,101531.50
2023-01-29T20:16:33.498Z,101526.59
2023-01-29T20:19:13.934Z,101516.31
2023-01-29T20:21:42.222Z,101510.41
2023-01-29T20:24:12.525Z,101516.41
2023-01-29T20:26:39.674Z,101509.31
2023-01-29T20:29:06.556Z,101497.22
2023-01-29T20:31:33.579Z,101487.53
2023-01-29T20:34:00.342Z,101483.59
2023-01-29T20:36:27.484Z,101485.81
2023-01-29T20:38:54.099Z,101461.56
2023-01-29T20:41:21.898Z,101478.75
2023-01-29T20:43:50.494Z,101483.13
2023-01-29T20:46:18.191Z,101486.28
2023-01-29T20:48:44.966Z,101498.78
2023-01-29T20:51:15.516Z,101487.13
2023-01-29T20:53:45.041Z,101480.53
2023-01-29T20:56:12.419Z,101474.56
2023-01-29T20:58:40.826Z,101481.28
2023-01-29T21:01:11.834Z,101470.19
2023-01-29T21:03:39.466Z,101485.56
2023-01-29T21:06:07.256Z,101488.19
2023-01-29T21:08:35.288Z,101505.69
2023-01-29T21:11:02.888Z,101490.16
2023-01-29T21:13:29.583Z,101483.84
2023-01-29T21:15:56.493Z,101484.22
2023-01-29T21:18:26.585Z,101475.41
2023-01-29T21:20:54.454Z,101461.56
2023-01-29T21:23:22.012Z,101456.94
2023-01-29T21:25:48.681Z,101454.59
2023-01-29T21:28:15.906Z,101440.91
2023-01-29T21:30:42.854Z,101454.25
2023-01-29T21:33:09.630Z,101460.56
2023-01-29T21:35:37.815Z,101468.25
2023-01-29T21:38:04.760Z,101466.94
2023-01-29T21:40:31.542Z,101462.81
2023-01-29T21:43:15.422Z,101478.00
2023-01-29T21:45:42.739Z,101476.34
2023-01-29T21:48:11.178Z,101487.09
2023-01-29T21:50:38.684Z,101491.91
2023-01-29T21:53:05.399Z,101496.53
2023-01-29T21:55:32.938Z,101496.06
2023-01-29T21:58:00.346Z,101493.31
2023-01-29T22:00:27.397Z,101491.72
2023-01-29T22:02:54.178Z,101487.47
2023-01-29T22:05:20.931Z,101480.88
2023-01-29T22:07:48.648Z,101469.34
2023-01-29T22:10:17.622Z,101467.84
2023-01-29T22:12:44.874Z,101480.25
2023-01-29T22:15:12.308Z,101467.19
2023-01-29T22:17:41.251Z,101471.47
2023-01-29T22:20:12.346Z,101459.56
2023-01-29T22:22:39.148Z,101462.78
2023-01-29T22:25:06.090Z,101459.03
2023-01-29T22:27:33.903Z,101444.38
2023-01-29T22:30:00.764Z,101445.16
2023-01-29T22:32:27.679Z,101443.59
2023-01-29T22:34:54.465Z,101447.22
2023-01-29T22:37:21.607Z,101441.72
2023-01-29T22:39:48.226Z,101447.44
2023-01-29T22:42:14.906Z,101454.34
2023-01-29T22:44:42.637Z,101452.19
2023-01-29T22:47:09.284Z,101423.47
2023-01-29T22:49:35.839Z,101414.94
2023-01-29T22:52:11.396Z,101405.78
2023-01-29T22:54:41.588Z,101398.38
2023-01-29T22:57:12.433Z,101372.06
2023-01-29T22:59:39.359Z,101351.97
2023-01-29T23:02:07.060Z,101338.41
2023-01-29T23:04:33.741Z,101336.97
2023-01-29T23:07:00.356Z,101309.88
2023-01-29T23:09:27.077Z,101301.28
2023-01-29T23:11:53.736Z,101309.84
2023-01-29T23:14:20.373Z,101286.81
2023-01-29T23:16:46.966Z,101289.72
2023-01-29T23:19:13.634Z,101313.97
2023-01-29T23:21:40.225Z,101330.50
2023-01-29T23:24:08.125Z,101325.25
2023-01-29T23:26:53.574Z,101331.66
2023-01-29T23:29:20.613Z,101322.31
2023-01-29T23:31:47.375Z,101315.31
2023-01-29T23:34:15.045Z,101309.25
2023-01-29T23:36:42.317Z,101305.81
2023-01-29T23:39:09.329Z,101292.88
2023-01-29T23:41:36.437Z,101294.44
2023-01-29T23:44:03.529Z,101287.16
2023-01-29T23:46:30.322Z,101288.91
2023-01-29T23:48:56.970Z,101287.25
2023-01-29T23:51:23.751Z,101269.53
2023-01-29T23:53:50.867Z,101247.97
2023-01-29T23:56:17.800Z,101254.25
2023-01-29T23:58:44.864Z,101254.50
